Time;durP1;ratioP1;P1;durP2;ratioP2;P2;SDS_P1;SDS_P2;PMS_P1;PMS_P2;Temp;Humidity;BMP_temperature;BMP_pressure;BME280_temperature;BME280_humidity;BME280_pressure;Samples;Min_cycle;Max_cycle;Signal;HPM_P1;HPM_P2
2022/03/12 00:02:04;;;;;;;12.95;4.63;;;10.00;55.10;;;;;;5053440;28;20091;-74
2022/03/12 00:04:30;;;;;;;9.95;4.32;;;10.00;55.80;;;;;;5053298;28;20478;-74
2022/03/12 00:06:58;;;;;;;14.80;5.22;;;10.00;55.20;;;;;;5054692;28;20036;-74
2022/03/12 00:09:24;;;;;;;14.07;5.30;;;10.00;55.90;;;;;;5054805;28;20021;-74
2022/03/12 00:11:55;;;;;;;13.48;6.15;;;10.00;55.70;;;;;;5054985;28;20029;-74
2022/03/12 00:14:23;;;;;;;17.10;4.90;;;10.00;55.60;;;;;;5054770;28;20378;-74
2022/03/12 00:16:49;;;;;;;35.28;5.90;;;10.00;55.60;;;;;;5054609;28;20100;-73
2022/03/12 00:19:16;;;;;;;16.63;5.72;;;10.10;56.20;;;;;;5053448;28;20474;-73
2022/03/12 00:21:43;;;;;;;14.32;4.45;;;10.10;56.80;;;;;;5053061;28;20028;-73
2022/03/12 00:24:12;;;;;;;15.20;5.97;;;10.10;55.80;;;;;;5054284;28;20036;-73
2022/03/12 00:26:40;;;;;;;11.70;5.15;;;10.10;56.90;;;;;;5052819;28;20017;-72
2022/03/12 00:29:12;;;;;;;12.73;4.45;;;10.20;57.40;;;;;;5052798;28;20029;-72
2022/03/12 00:31:38;;;;;;;10.25;4.50;;;10.10;58.70;;;;;;5054381;28;20059;-72
2022/03/12 00:34:04;;;;;;;12.20;4.70;;;10.10;58.90;;;;;;5053981;28;20069;-72
2022/03/12 00:36:29;;;;;;;10.00;4.22;;;10.10;59.30;;;;;;5052755;28;20474;-72
2022/03/12 00:38:55;;;;;;;12.90;4.72;;;10.10;59.70;;;;;;5053849;28;20075;-73
2022/03/12 00:41:20;;;;;;;13.45;5.07;;;10.10;59.80;;;;;;5052713;28;20113;-73
2022/03/12 00:43:46;;;;;;;11.00;4.65;;;10.10;60.00;;;;;;5054084;28;20029;-73
2022/03/12 00:46:12;;;;;;;12.32;4.85;;;10.10;59.60;;;;;;5053849;28;20025;-73
2022/03/12 00:48:41;;;;;;;13.75;5.68;;;10.00;59.90;;;;;;5053775;28;20036;-72
2022/03/12 00:51:08;;;;;;;;;;;11.80;61.80;;;;;;5052877;28;20028;-73
2022/03/12 00:53:34;;;;;;;12.57;4.60;;;10.10;60.60;;;;;;5054262;28;19908;-73
2022/03/12 00:56:00;;;;;;;13.85;6.28;;;10.10;60.10;;;;;;5053777;28;20494;-73
2022/03/12 00:58:26;;;;;;;11.25;4.70;;;10.20;59.10;;;;;;5053607;28;20025;-73
2022/03/12 01:00:51;;;;;;;10.30;4.60;;;10.20;59.10;;;;;;5054198;28;20413;-73
2022/03/12 01:03:17;;;;;;;12.50;5.32;;;10.20;59.30;;;;;;5052430;28;20028;-73
2022/03/12 01:05:48;;;;;;;12.10;5.30;;;10.20;59.10;;;;;;5053573;28;20040;-73
2022/03/12 01:08:14;;;;;;;12.63;5.18;;;10.20;59.30;;;;;;5052081;28;20024;-73
2022/03/12 01:10:41;;;;;;;10.50;4.57;;;10.20;58.90;;;;;;5053431;28;20386;-73
2022/03/12 01:13:07;;;;;;;12.60;5.20;;;10.20;59.10;;;;;;5053766;28;20488;-73
2022/03/12 01:15:34;;;;;;;15.13;5.70;;;10.20;59.00;;;;;;5053437;28;20024;-73
2022/03/12 01:18:00;;;;;;;12.73;5.50;;;10.30;58.20;;;;;;5052833;28;20056;-72
2022/03/12 01:20:27;;;;;;;12.02;4.95;;;10.30;58.20;;;;;;5053522;28;20076;-73
2022/03/12 01:22:53;;;;;;;14.00;4.95;;;10.30;58.40;;;;;;5053381;28;20071;-73
2022/03/12 01:25:19;;;;;;;12.25;4.95;;;10.30;58.30;;;;;;5053583;28;20060;-72
2022/03/12 01:27:45;;;;;;;13.90;5.22;;;10.30;58.70;;;;;;5053509;28;20532;-72
2022/03/12 01:30:11;;;;;;;14.82;5.53;;;10.30;59.10;;;;;;5051951;28;20025;-72
2022/03/12 01:32:37;;;;;;;9.70;4.30;;;10.30;59.70;;;;;;5053133;28;20083;-72
2022/03/12 01:35:04;;;;;;;10.52;5.05;;;10.30;60.30;;;;;;5053725;28;20021;-74
2022/03/12 01:37:30;;;;;;;12.65;4.80;;;10.30;63.10;;;;;;5053016;28;20048;-74
2022/03/12 01:39:55;;;;;;;13.93;4.93;;;10.20;64.30;;;;;;5054163;28;20017;-74
2022/03/12 01:42:22;;;;;;;11.38;5.22;;;10.20;65.20;;;;;;5051924;28;20021;-74
2022/03/12 01:44:50;;;;;;;15.25;5.80;;;10.10;68.30;;;;;;5051910;28;20415;-74
2022/03/12 01:47:19;;;;;;;13.35;5.40;;;10.00;68.50;;;;;;5053090;28;20017;-74
2022/03/12 01:49:47;;;;;;;22.45;5.88;;;10.00;71.80;;;;;;5053110;28;20028;-74
2022/03/12 01:52:13;;;;;;;13.17;5.63;;;9.90;73.10;;;;;;5053293;28;20033;-74
2022/03/12 01:54:42;;;;;;;13.27;5.13;;;9.90;75.90;;;;;;5051794;28;20021;-74
2022/03/12 01:57:09;;;;;;;;;;;9.80;79.60;;;;;;5053367;28;20021;-74
2022/03/12 01:59:35;;;;;;;12.30;5.57;;;9.70;80.70;;;;;;5051857;28;19936;-74
2022/03/12 02:02:01;;;;;;;12.10;5.28;;;9.70;80.10;;;;;;5053309;28;20499;-74
2022/03/12 02:04:29;;;;;;;9.98;4.90;;;9.70;82.30;;;;;;5051704;28;20063;-74
2022/03/12 02:06:58;;;;;;;10.57;5.25;;;9.60;83.90;;;;;;5051642;28;20116;-74
2022/03/12 02:09:23;;;;;;;13.27;5.82;;;9.60;85.60;;;;;;5053106;28;20025;-74
2022/03/12 02:11:52;;;;;;;16.95;6.35;;;9.60;90.10;;;;;;5051611;28;20035;-74
2022/03/12 02:14:20;;;;;;;11.00;5.28;;;9.60;89.50;;;;;;5053103;28;20382;-74
2022/03/12 02:16:52;;;;;;;20.25;6.10;;;9.50;91.30;;;;;;5053193;28;20021;-74
2022/03/12 02:19:19;;;;;;;13.38;5.55;;;9.40;91.50;;;;;;5053171;28;20470;-74
2022/03/12 02:21:51;;;;;;;16.23;5.72;;;9.40;91.40;;;;;;5052930;28;20017;-74
2022/03/12 02:24:19;;;;;;;13.63;5.40;;;9.40;92.30;;;;;;5051674;28;20029;-74
2022/03/12 02:26:45;;;;;;;13.10;6.03;;;9.40;92.10;;;;;;5052768;28;20064;-74
2022/03/12 02:29:13;;;;;;;12.90;5.93;;;9.40;92.00;;;;;;5054151;28;20466;-74
2022/03/12 02:31:45;;;;;;;12.98;5.53;;;9.40;91.80;;;;;;5055151;28;20166;-74
2022/03/12 02:34:12;;;;;;;13.85;5.05;;;9.40;92.30;;;;;;5056471;28;20059;-74
2022/03/12 02:36:41;;;;;;;15.80;5.82;;;9.40;92.60;;;;;;5056432;28;20497;-74
2022/03/12 02:39:07;;;;;;;12.60;5.47;;;9.40;91.80;;;;;;5056337;28;20497;-74
2022/03/12 02:41:34;;;;;;;13.68;5.80;;;9.40;92.20;;;;;;5056252;28;20390;-74
2022/03/12 02:44:00;;;;;;;12.77;4.85;;;9.40;91.90;;;;;;5055102;28;20483;-74
2022/03/12 02:46:31;;;;;;;13.68;5.38;;;9.50;92.20;;;;;;5055035;28;20102;-74
2022/03/12 02:48:57;;;;;;;13.38;5.40;;;9.40;92.70;;;;;;5054983;28;20498;-74
2022/03/12 02:51:23;;;;;;;14.60;5.60;;;9.50;92.50;;;;;;5054878;28;20112;-74
2022/03/12 02:53:59;;;;;;;12.43;6.13;;;9.50;93.20;;;;;;5054748;28;20013;-74
2022/03/12 02:56:26;;;;;;;15.35;4.88;;;9.50;93.90;;;;;;5056074;28;20029;-74
2022/03/12 02:58:52;;;;;;;12.10;5.13;;;9.50;93.70;;;;;;5055963;28;20071;-74
2022/03/12 03:01:18;;;;;;;11.88;5.60;;;9.50;94.10;;;;;;5056048;28;20104;-74
2022/03/12 03:03:46;;;;;;;12.45;4.82;;;9.50;94.50;;;;;;5054624;28;20036;-74
2022/03/12 03:06:15;;;;;;;14.32;6.13;;;9.50;94.80;;;;;;5054598;28;20021;-74
2022/03/12 03:08:44;;;;;;;15.25;5.38;;;9.50;95.40;;;;;;5056161;28;20025;-74
2022/03/12 03:11:13;;;;;;;13.60;6.20;;;9.60;95.30;;;;;;5054917;28;20031;-74
2022/03/12 03:13:44;;;;;;;15.20;5.45;;;9.60;95.20;;;;;;5054467;28;20116;-74
2022/03/12 03:16:18;;;;;;;15.82;6.00;;;9.60;95.90;;;;;;5056052;28;20021;-74
2022/03/12 03:18:50;;;;;;;12.32;5.28;;;9.50;96.30;;;;;;5055548;28;20021;-74
2022/03/12 03:21:17;;;;;;;15.00;5.53;;;9.60;95.80;;;;;;5055664;28;20032;-74
2022/03/12 03:23:46;;;;;;;15.75;5.82;;;9.50;96.60;;;;;;5055827;28;20083;-73
2022/03/12 03:26:14;;;;;;;14.75;4.93;;;9.60;96.80;;;;;;5054165;28;20017;-74
2022/03/12 03:28:41;;;;;;;14.00;5.38;;;9.60;96.50;;;;;;5055613;28;20518;-74
2022/03/12 03:31:08;;;;;;;15.23;5.65;;;9.60;96.30;;;;;;5054056;28;20119;-74
2022/03/12 03:33:34;;;;;;;14.90;6.07;;;9.50;96.80;;;;;;5054055;28;20451;-74
2022/03/12 03:35:59;;;;;;;15.25;5.13;;;9.50;96.70;;;;;;5053926;28;20021;-74
2022/03/12 03:38:25;;;;;;;13.57;6.20;;;9.50;96.90;;;;;;5053854;28;20372;-74
2022/03/12 03:40:51;;;;;;;13.90;5.63;;;9.40;96.80;;;;;;5055209;28;20478;-74
2022/03/12 03:43:23;;;;;;;12.63;4.95;;;9.40;97.30;;;;;;5055694;28;20080;-74
2022/03/12 03:45:52;;;;;;;17.20;5.95;;;9.30;97.30;;;;;;5055084;28;20029;-74
2022/03/12 03:48:19;;;;;;;12.77;6.15;;;9.30;97.10;;;;;;5054955;28;20573;-74
2022/03/12 03:50:46;;;;;;;16.02;6.20;;;9.30;97.20;;;;;;5054958;28;20027;-74
2022/03/12 03:53:14;;;;;;;12.50;6.28;;;9.20;97.50;;;;;;5055052;28;20044;-74
2022/03/12 03:55:40;;;;;;;11.80;5.22;;;9.10;98.20;;;;;;5054967;28;20447;-74
2022/03/12 03:58:06;;;;;;;14.27;6.53;;;9.10;97.90;;;;;;5054766;28;20017;-74
2022/03/12 04:00:31;;;;;;;11.13;4.60;;;9.00;98.10;;;;;;5053459;28;20387;-74
2022/03/12 04:03:04;;;;;;;15.07;6.15;;;9.00;98.90;;;;;;5055071;28;20025;-74
2022/03/12 04:05:32;;;;;;;15.50;5.35;;;8.90;98.60;;;;;;5054966;28;20025;-74
2022/03/12 04:07:59;;;;;;;13.02;4.95;;;8.90;98.90;;;;;;5054769;28;20021;-74
2022/03/12 04:10:25;;;;;;;12.23;5.03;;;8.90;98.80;;;;;;5053245;28;20021;-74
2022/03/12 04:12:50;;;;;;;12.10;6.05;;;8.90;99.80;;;;;;5054853;28;20028;-74
2022/03/12 04:15:17;;;;;;;13.00;5.05;;;8.80;99.80;;;;;;5053242;28;20424;-74
2022/03/12 04:17:45;;;;;;;16.70;6.47;;;8.80;99.90;;;;;;5054857;28;20029;-74
2022/03/12 04:20:14;;;;;;;11.90;4.90;;;8.70;99.90;;;;;;5053150;28;20552;-74
2022/03/12 04:22:40;;;;;;;12.90;5.10;;;8.70;99.90;;;;;;5054308;28;20024;-74
2022/03/12 04:25:11;;;;;;;14.10;5.47;;;8.60;99.90;;;;;;5054629;28;20033;-74
2022/03/12 04:27:38;;;;;;;12.10;5.20;;;8.50;99.90;;;;;;5054650;28;20478;-74
2022/03/12 04:30:05;;;;;;;12.93;4.90;;;8.50;99.90;;;;;;5054091;28;20386;-74
2022/03/12 04:32:31;;;;;;;15.38;5.40;;;8.40;99.90;;;;;;5053951;28;20036;-74
2022/03/12 04:34:57;;;;;;;10.23;5.03;;;8.40;99.90;;;;;;5052671;28;20017;-74
2022/03/12 04:37:22;;;;;;;15.40;5.55;;;8.30;99.90;;;;;;5053779;28;20087;-75
2022/03/12 04:39:51;;;;;;;15.35;4.88;;;8.30;99.90;;;;;;5054680;28;20021;-75
2022/03/12 04:42:21;;;;;;;12.18;5.05;;;8.20;99.90;;;;;;5052672;28;20021;-75
2022/03/12 04:44:47;;;;;;;23.30;6.57;;;8.20;99.90;;;;;;5054019;28;20027;-75
2022/03/12 04:47:17;;;;;;;18.15;6.25;;;8.20;99.90;;;;;;5053596;28;20033;-75
2022/03/12 04:49:42;;;;;;;12.18;5.20;;;8.10;99.90;;;;;;5053858;28;20119;-75
2022/03/12 04:52:11;;;;;;;12.85;5.70;;;8.10;99.90;;;;;;5053223;28;20453;-75
2022/03/12 04:54:36;;;;;;;11.93;5.30;;;8.10;99.90;;;;;;5054288;28;20017;-75
2022/03/12 04:57:03;;;;;;;12.45;5.90;;;8.10;99.90;;;;;;5053898;28;20048;-75
2022/03/12 04:59:28;;;;;;;14.63;5.75;;;8.10;99.90;;;;;;5053530;28;20047;-74
2022/03/12 05:01:54;;;;;;;17.73;5.60;;;8.20;99.90;;;;;;5053624;28;20525;-74
2022/03/12 05:04:19;;;;;;;12.48;5.25;;;8.20;99.90;;;;;;5052321;28;20394;-74
2022/03/12 05:06:45;;;;;;;13.57;5.35;;;8.20;99.90;;;;;;5053468;28;20036;-75
2022/03/12 05:09:10;;;;;;;12.98;5.15;;;8.20;99.90;;;;;;5052275;28;20082;-74
2022/03/12 05:11:38;;;;;;;12.35;5.47;;;8.20;99.90;;;;;;5052035;28;20053;-74
2022/03/12 05:14:06;;;;;;;12.90;5.35;;;8.20;99.90;;;;;;5053872;28;20016;-74
2022/03/12 05:16:32;;;;;;;10.73;4.82;;;8.10;99.90;;;;;;5053347;28;20028;-74
2022/03/12 05:18:58;;;;;;;12.15;5.07;;;8.10;99.90;;;;;;5052035;28;20028;-74
2022/03/12 05:21:24;;;;;;;14.02;5.13;;;8.00;99.90;;;;;;5053565;28;20036;-74
2022/03/12 05:23:49;;;;;;;10.82;5.18;;;8.10;99.90;;;;;;5053570;28;20459;-74
2022/03/12 05:26:15;;;;;;;12.68;4.95;;;8.10;99.90;;;;;;5053480;28;20075;-74
2022/03/12 05:28:41;;;;;;;13.30;5.25;;;8.10;99.90;;;;;;5053180;28;20078;-74
2022/03/12 05:31:09;;;;;;;12.52;5.22;;;8.10;99.90;;;;;;5053768;28;20025;-74
2022/03/12 05:33:35;;;;;;;13.23;4.93;;;8.10;99.90;;;;;;5053277;28;20020;-74
2022/03/12 05:36:03;;;;;;;11.95;4.88;;;8.10;99.90;;;;;;5053576;28;20055;-74
2022/03/12 05:38:31;;;;;;;9.90;4.60;;;8.00;99.90;;;;;;5052822;28;20398;-73
2022/03/12 05:40:57;;;;;;;10.65;4.65;;;8.00;99.90;;;;;;5053139;28;20092;-73
2022/03/12 05:43:25;;;;;;;14.68;4.93;;;7.90;99.90;;;;;;5052016;28;20052;-74
2022/03/12 05:45:52;;;;;;;9.68;4.53;;;7.90;99.90;;;;;;5053232;28;20017;-74
2022/03/12 05:48:19;;;;;;;12.55;4.60;;;7.80;99.90;;;;;;5053845;28;20022;-74
2022/03/12 05:50:47;;;;;;;17.67;5.32;;;7.80;99.90;;;;;;5053103;28;20021;-74
2022/03/12 05:53:14;;;;;;;7.97;4.43;;;7.90;99.90;;;;;;5053087;28;20033;-74
2022/03/12 05:55:40;;;;;;;13.00;4.20;;;7.80;99.90;;;;;;5052975;28;20035;-74
2022/03/12 05:58:08;;;;;;;10.88;4.50;;;7.80;99.90;;;;;;5053212;28;20021;-74
2022/03/12 06:00:34;;;;;;;12.73;4.18;;;7.80;99.90;;;;;;5053019;28;20021;-74
2022/03/12 06:03:01;;;;;;;9.77;4.47;;;7.80;99.90;;;;;;5052127;28;20025;-74
2022/03/12 06:05:27;;;;;;;7.35;3.42;;;7.80;99.90;;;;;;5057512;28;20492;-74
2022/03/12 06:07:54;;;;;;;7.53;3.58;;;7.80;99.90;;;;;;5056853;28;20033;-75
2022/03/12 06:10:24;;;;;;;9.10;3.70;;;7.70;99.90;;;;;;5057437;28;20115;-75
2022/03/12 06:12:53;;;;;;;6.35;3.05;;;7.80;99.90;;;;;;5057048;28;20074;-75
2022/03/12 06:15:21;;;;;;;8.48;3.95;;;7.70;99.90;;;;;;5056143;28;20048;-74
2022/03/12 06:17:49;;;;;;;10.40;4.43;;;7.70;99.90;;;;;;5055900;28;20062;-75
2022/03/12 06:20:16;;;;;;;7.65;3.45;;;7.80;99.90;;;;;;5057321;28;20271;-74
2022/03/12 06:22:43;;;;;;;9.45;3.17;;;7.80;99.90;;;;;;5057756;28;20035;-74
2022/03/12 06:25:11;;;;;;;8.75;3.58;;;7.90;99.90;;;;;;5057101;28;20025;-74
2022/03/12 06:27:37;;;;;;;8.75;3.40;;;7.90;99.90;;;;;;5055161;28;20394;-74
2022/03/12 06:30:08;;;;;;;9.65;3.90;;;8.00;99.90;;;;;;5055188;28;20454;-74
2022/03/12 06:32:35;;;;;;;7.82;3.13;;;8.00;99.90;;;;;;5055152;28;20025;-74
2022/03/12 06:35:01;;;;;;;9.40;3.67;;;8.00;99.90;;;;;;5056396;28;20029;-74
2022/03/12 06:37:27;;;;;;;10.93;3.28;;;8.10;99.90;;;;;;5056437;28;20367;-74
2022/03/12 06:39:54;;;;;;;7.68;3.08;;;8.10;99.90;;;;;;5056386;28;20021;-74
2022/03/12 06:42:28;;;;;;;9.98;3.95;;;8.10;99.90;;;;;;5054973;28;20025;-74
2022/03/12 06:44:55;;;;;;;8.05;3.30;;;8.10;99.90;;;;;;5056210;28;20049;-74
2022/03/12 06:47:22;;;;;;;9.60;3.45;;;8.20;99.90;;;;;;5054996;28;20025;-74
2022/03/12 06:49:47;;;;;;;7.93;3.20;;;8.20;99.90;;;;;;5071607;28;20507;-74
2022/03/12 06:52:13;;;;;;;8.43;2.80;;;8.40;99.90;;;;;;5056018;28;20021;-74
2022/03/12 06:54:38;;;;;;;7.00;3.03;;;8.30;99.90;;;;;;5055970;28;20021;-74
2022/03/12 06:57:06;;;;;;;7.97;3.65;;;8.40;99.90;;;;;;5055923;28;20017;-74
2022/03/12 06:59:32;;;;;;;7.47;2.87;;;8.50;99.90;;;;;;5054841;28;20159;-73
2022/03/12 07:01:58;;;;;;;7.18;3.45;;;8.50;99.90;;;;;;5056422;28;20104;-73
2022/03/12 07:04:24;;;;;;;7.65;2.72;;;8.60;99.90;;;;;;5056118;28;20021;-73
2022/03/12 07:06:50;;;;;;;10.50;3.10;;;8.60;99.90;;;;;;5055874;28;20021;-73
2022/03/12 07:09:17;;;;;;;7.68;3.25;;;8.70;99.90;;;;;;5056113;28;20052;-73
2022/03/12 07:11:42;;;;;;;7.18;2.85;;;8.80;99.90;;;;;;5054451;28;20028;-73
2022/03/12 07:14:08;;;;;;;9.23;2.78;;;8.80;99.90;;;;;;5054363;28;20028;-73
2022/03/12 07:16:34;;;;;;;7.35;2.60;;;9.00;99.90;;;;;;5053678;28;20067;-73
2022/03/12 07:19:01;;;;;;;8.48;2.85;;;9.10;99.90;;;;;;5055689;28;20024;-73
2022/03/12 07:21:27;;;;;;;6.13;2.15;;;9.20;99.90;;;;;;5054249;28;20021;-73
2022/03/12 07:23:53;;;;;;;7.68;2.97;;;9.20;99.90;;;;;;5056075;28;20025;-73
2022/03/12 07:26:20;;;;;;;5.53;2.90;;;9.30;99.90;;;;;;5055454;28;20029;-73
2022/03/12 07:28:46;;;;;;;10.27;2.92;;;9.40;99.90;;;;;;5055464;28;20021;-73
2022/03/12 07:31:15;;;;;;;6.88;3.13;;;9.40;99.90;;;;;;5055657;28;20489;-73
2022/03/12 07:33:40;;;;;;;6.53;2.83;;;9.50;99.90;;;;;;5054160;28;20032;-73
2022/03/12 07:36:06;;;;;;;6.90;2.65;;;9.40;99.90;;;;;;5055376;28;20023;-73
2022/03/12 07:38:32;;;;;;;8.02;3.05;;;9.50;99.90;;;;;;5055129;28;20040;-73
2022/03/12 07:40:58;;;;;;;6.55;3.05;;;9.50;99.90;;;;;;5055781;28;20025;-73
2022/03/12 07:43:24;;;;;;;7.20;2.53;;;9.50;99.90;;;;;;5055138;28;20102;-73
2022/03/12 07:45:49;;;;;;;6.43;3.15;;;9.60;99.90;;;;;;5053793;28;20032;-73
2022/03/12 07:48:15;;;;;;;9.88;3.40;;;9.60;99.90;;;;;;5053637;28;20021;-73
2022/03/12 07:50:40;;;;;;;6.32;3.17;;;9.70;99.90;;;;;;5055141;28;20552;-73
2022/03/12 07:53:06;;;;;;;5.38;2.00;;;9.80;99.90;;;;;;5053742;28;20116;-73
2022/03/12 07:55:31;;;;;;;6.72;2.83;;;9.80;99.90;;;;;;5053569;28;20021;-73
2022/03/12 07:57:57;;;;;;;5.90;2.85;;;9.90;99.90;;;;;;5055094;28;20028;-74
2022/03/12 08:00:28;;;;;;;7.57;2.85;;;10.00;99.90;;;;;;5054927;28;20474;-73
2022/03/12 08:02:54;;;;;;;5.90;2.50;;;10.00;99.90;;;;;;5055210;28;20104;-73
2022/03/12 08:05:23;;;;;;;6.53;2.63;;;10.10;99.90;;;;;;5053490;28;20442;-73
2022/03/12 08:07:50;;;;;;;5.57;2.65;;;10.10;99.90;;;;;;5054520;28;20074;-73
2022/03/12 08:10:16;;;;;;;5.15;2.50;;;10.20;99.90;;;;;;5053239;28;20047;-73
2022/03/12 08:12:44;;;;;;;4.65;2.08;;;10.20;99.90;;;;;;5053388;28;20064;-73
2022/03/12 08:15:12;;;;;;;6.03;2.00;;;10.30;99.90;;;;;;5054555;28;20021;-74
2022/03/12 08:17:38;;;;;;;6.23;2.10;;;10.30;99.90;;;;;;5053126;28;20493;-74
2022/03/12 08:20:08;;;;;;;5.13;2.63;;;10.40;99.90;;;;;;5054658;28;20025;-74
2022/03/12 08:22:44;;;;;;;8.35;2.55;;;10.40;99.90;;;;;;5053099;28;20025;-74
2022/03/12 08:25:11;;;;;;;7.63;2.78;;;10.50;99.90;;;;;;5054432;28;20021;-74
2022/03/12 08:27:38;;;;;;;5.90;2.25;;;10.50;99.90;;;;;;5054426;28;20052;-74
2022/03/12 08:30:07;;;;;;;4.75;2.25;;;10.50;99.90;;;;;;5054503;28;20471;-74
2022/03/12 08:32:34;;;;;;;8.05;2.80;;;10.60;99.90;;;;;;5053012;28;20490;-73
2022/03/12 08:35:00;;;;;;;7.47;2.63;;;10.60;99.90;;;;;;5054289;28;20096;-73
2022/03/12 08:37:26;;;;;;;5.05;1.88;;;10.70;99.90;;;;;;5053982;28;20159;-73
2022/03/12 08:39:51;;;;;;;7.18;2.58;;;10.70;99.90;;;;;;5054469;28;20112;-74
2022/03/12 08:42:17;;;;;;;5.05;1.90;;;10.80;99.90;;;;;;5053963;28;20099;-74
2022/03/12 08:44:42;;;;;;;4.72;2.40;;;10.80;99.90;;;;;;5052550;28;20033;-74
2022/03/12 08:47:08;;;;;;;7.22;2.28;;;10.90;99.90;;;;;;5054123;28;20502;-74
2022/03/12 08:49:35;;;;;;;7.95;2.08;;;10.90;99.90;;;;;;5054416;28;20029;-73
2022/03/12 08:52:00;;;;;;;4.68;2.05;;;11.10;99.90;;;;;;5052524;28;20104;-74
2022/03/12 08:54:26;;;;;;;6.45;2.10;;;11.10;99.90;;;;;;5054266;28;20076;-73
2022/03/12 08:56:51;;;;;;;7.43;2.55;;;11.20;99.90;;;;;;5052459;28;20017;-74
2022/03/12 08:59:17;;;;;;;4.90;2.08;;;11.30;99.90;;;;;;5052417;28;20062;-73
2022/03/12 09:01:45;;;;;;;5.45;1.92;;;11.30;99.90;;;;;;5053803;28;20490;-73
2022/03/12 09:04:11;;;;;;;4.43;1.70;;;11.40;99.90;;;;;;5053764;28;20024;-73
2022/03/12 09:06:36;;;;;;;5.28;1.92;;;11.50;99.90;;;;;;5053838;28;20130;-73
2022/03/12 09:09:02;;;;;;;3.88;2.13;;;11.50;99.90;;;;;;5053532;28;20628;-73
2022/03/12 09:11:27;;;;;;;11.98;2.70;;;11.50;99.90;;;;;;5053648;28;20025;-74
2022/03/12 09:13:56;;;;;;;4.60;1.75;;;11.50;99.90;;;;;;5053571;28;20092;-73
2022/03/12 09:16:22;;;;;;;6.43;1.70;;;11.50;99.90;;;;;;5053513;28;20013;-74
2022/03/12 09:18:48;;;;;;;4.55;1.60;;;11.60;99.90;;;;;;5052000;28;20045;-74
2022/03/12 09:21:16;;;;;;;3.38;1.45;;;11.70;99.90;;;;;;5053388;28;20025;-73
2022/03/12 09:23:42;;;;;;;5.80;1.55;;;11.70;99.90;;;;;;5053233;28;20021;-73
2022/03/12 09:26:07;;;;;;;5.07;2.13;;;11.80;99.90;;;;;;5053187;28;20029;-74
2022/03/12 09:28:34;;;;;;;5.63;1.52;;;11.90;99.90;;;;;;5053071;28;20502;-74
2022/03/12 09:31:01;;;;;;;3.90;1.53;;;12.00;99.90;;;;;;5053153;28;20041;-73
2022/03/12 09:33:27;;;;;;;8.48;1.40;;;12.10;99.90;;;;;;5051731;28;20124;-73
2022/03/12 09:35:55;;;;;;;6.82;1.67;;;12.10;99.90;;;;;;5051940;28;20025;-73
2022/03/12 09:38:22;;;;;;;4.53;1.35;;;12.10;99.90;;;;;;5054126;28;20111;-74
2022/03/12 09:40:48;;;;;;;2.08;1.35;;;12.20;99.90;;;;;;5059969;28;20509;-74
2022/03/12 09:43:13;;;;;;;5.88;1.63;;;12.30;99.90;;;;;;5059639;28;20056;-74
2022/03/12 09:45:39;;;;;;;3.92;1.38;;;12.40;99.90;;;;;;5058713;28;20052;-73
2022/03/12 09:48:07;;;;;;;2.33;1.23;;;12.60;99.90;;;;;;5059559;28;20029;-73
2022/03/12 09:50:33;;;;;;;4.90;1.50;;;12.50;99.90;;;;;;5059608;28;20032;-74
2022/03/12 09:52:58;;;;;;;5.15;1.35;;;12.60;99.90;;;;;;5058189;28;20371;-73
2022/03/12 09:55:24;;;;;;;5.55;1.73;;;12.70;99.90;;;;;;5060066;28;20075;-74
2022/03/12 09:57:50;;;;;;;3.42;0.52;;;12.80;99.90;;;;;;5059792;28;20021;-74
2022/03/12 10:00:18;;;;;;;2.25;0.30;;;12.80;99.90;;;;;;5058320;28;20017;-74
2022/03/12 10:02:44;;;;;;;3.85;0.73;;;12.70;99.90;;;;;;5059702;28;20107;-74
2022/03/12 10:05:16;;;;;;;1.75;0.30;;;12.70;99.90;;;;;;5058327;28;20044;-74
2022/03/12 10:07:42;;;;;;;4.10;0.98;;;12.70;99.90;;;;;;5058443;28;20040;-73
2022/03/12 10:10:15;;;;;;;5.38;1.23;;;12.80;99.90;;;;;;5058133;28;20025;-74
2022/03/12 10:12:42;;;;;;;5.28;0.22;;;12.70;99.90;;;;;;5058184;28;20541;-74
2022/03/12 10:15:10;;;;;;;2.30;0.20;;;12.70;99.90;;;;;;5060217;28;20044;-74
2022/03/12 10:17:35;;;;;;;4.03;0.30;;;12.70;99.90;;;;;;5059539;28;20437;-74
2022/03/12 10:20:01;;;;;;;4.53;0.20;;;12.70;99.90;;;;;;5059819;28;20024;-74
2022/03/12 10:22:27;;;;;;;3.60;0.40;;;12.80;99.90;;;;;;5060722;28;20048;-74
2022/03/12 10:24:53;;;;;;;5.10;0.50;;;12.70;99.90;;;;;;5046387;28;20095;-74
2022/03/12 10:27:19;;;;;;;4.30;0.30;;;12.80;99.90;;;;;;5044789;28;20391;-74
2022/03/12 10:29:45;;;;;;;3.08;0.50;;;13.00;99.90;;;;;;5059481;28;20029;-76
2022/03/12 10:32:28;;;;;;;2.90;0.57;;;13.10;99.90;;;;;;5059393;28;20033;-75
2022/03/12 10:34:59;;;;;;;2.72;0.20;;;13.10;99.90;;;;;;5058169;28;20035;-75
2022/03/12 10:37:27;;;;;;;3.33;0.38;;;13.20;99.90;;;;;;5057915;28;20025;-75
2022/03/12 10:40:03;;;;;;;2.13;0.10;;;13.30;99.90;;;;;;5059283;28;20044;-76
2022/03/12 10:42:31;;;;;;;4.00;0.10;;;13.40;99.90;;;;;;5059360;28;20097;-73
2022/03/12 10:45:09;;;;;;;7.32;0.30;;;13.70;99.90;;;;;;5058165;28;20359;-75
2022/03/12 10:47:53;;;;;;;2.40;0.10;;;14.00;98.50;;;;;;5059321;28;20024;-76
2022/03/12 10:50:26;;;;;;;1.92;0.20;;;14.00;97.40;;;;;;5056086;28;20032;-75
2022/03/12 10:52:55;;;;;;;3.45;0.30;;;14.20;96.20;;;;;;5071469;28;20406;-76
2022/03/12 10:55:25;;;;;;;2.13;0.00;;;14.20;95.40;;;;;;5056350;28;20394;-75
2022/03/12 10:57:56;;;;;;;1.58;0.22;;;14.30;94.40;;;;;;5056157;28;20032;-75
2022/03/12 11:00:23;;;;;;;1.23;0.03;;;14.30;95.50;;;;;;5054644;28;20021;-75
2022/03/12 11:02:54;;;;;;;1.50;0.15;;;14.40;93.90;;;;;;5054476;28;20033;-75
2022/03/12 11:05:25;;;;;;;3.22;0.55;;;14.40;95.00;;;;;;5054455;28;20040;-76
2022/03/12 11:07:51;;;;;;;1.55;0.10;;;14.40;93.40;;;;;;5054421;28;20021;-76
2022/03/12 11:10:28;;;;;;;3.30;0.22;;;14.50;94.00;;;;;;5054702;28;20027;-73
2022/03/12 11:12:55;;;;;;;3.47;0.20;;;14.60;92.60;;;;;;5054266;28;20071;-73
2022/03/12 11:15:23;;;;;;;0.80;0.20;;;14.80;92.60;;;;;;5054234;28;20037;-73
2022/03/12 11:17:51;;;;;;;4.25;0.10;;;14.60;90.90;;;;;;5055895;28;20027;-73
2022/03/12 11:20:23;;;;;;;2.28;0.30;;;14.50;93.20;;;;;;5050901;28;20479;-74
2022/03/12 11:23:12;;;;;;;3.65;0.68;;;14.60;92.40;;;;;;5055488;28;20095;-74
2022/03/12 11:25:59;;;;;;;0.80;0.03;;;14.40;91.50;;;;;;5055670;28;20023;-74
2022/03/12 11:28:28;;;;;;;4.78;0.35;;;14.50;90.60;;;;;;5055600;28;20462;-74
2022/03/12 11:30:54;;;;;;;0.85;0.10;;;14.50;91.20;;;;;;5055277;28;20021;-74
2022/03/12 11:33:22;;;;;;;0.70;0.20;;;14.50;90.90;;;;;;5055742;28;20052;-74
2022/03/12 11:35:49;;;;;;;2.67;0.20;;;14.30;91.00;;;;;;5054381;28;20100;-74
2022/03/12 11:38:20;;;;;;;1.77;0.03;;;14.10;92.10;;;;;;5053628;28;20392;-74
2022/03/12 11:40:50;;;;;;;0.93;0.10;;;14.20;92.10;;;;;;5055039;28;20494;-74
2022/03/12 11:43:30;;;;;;;4.93;0.20;;;14.20;94.20;;;;;;5054049;28;20048;-73
2022/03/12 11:45:59;;;;;;;1.20;0.30;;;14.40;93.10;;;;;;5054227;28;20037;-74
2022/03/12 11:48:29;;;;;;;5.13;0.20;;;14.60;91.80;;;;;;5055142;28;20467;-74
2022/03/12 11:51:03;;;;;;;2.13;0.17;;;14.70;90.50;;;;;;5054945;28;20025;-73
2022/03/12 11:53:36;;;;;;;3.97;0.75;;;14.70;90.10;;;;;;5055224;28;20040;-73
2022/03/12 11:56:04;;;;;;;11.68;0.75;;;14.70;91.30;;;;;;5053531;28;20021;-74
2022/03/12 11:58:29;;;;;;;3.47;1.00;;;14.90;92.10;;;;;;5054421;28;20067;-74
2022/03/12 12:00:55;;;;;;;2.05;0.10;;;15.20;87.80;;;;;;5049102;28;20025;-74
2022/03/12 12:03:20;;;;;;;1.67;0.40;;;15.40;83.60;;;;;;5053982;28;20021;-75
2022/03/12 12:05:47;;;;;;;3.85;0.80;;;15.50;84.10;;;;;;5056713;28;20025;-75
2022/03/12 12:08:13;;;;;;;4.70;0.28;;;15.70;80.80;;;;;;5041568;28;20021;-75
2022/03/12 12:10:42;;;;;;;2.30;0.10;;;15.70;80.30;;;;;;5035068;28;20030;-74
2022/03/12 12:13:13;;;;;;;;;;;15.60;83.20;;;;;;5034831;28;20026;-73
2022/03/12 12:15:40;;;;;;;3.17;0.30;;;15.90;82.20;;;;;;5034864;28;19984;-74
2022/03/12 12:18:12;;;;;;;2.92;0.20;;;16.00;78.70;;;;;;5033099;28;20022;-75
2022/03/12 12:20:41;;;;;;;1.50;0.32;;;16.00;80.10;;;;;;5034457;28;20133;-76
2022/03/12 12:23:12;;;;;;;1.95;0.10;;;16.10;80.00;;;;;;5049653;28;20154;-74
2022/03/12 12:25:38;;;;;;;1.73;0.00;;;16.10;74.70;;;;;;5052339;28;20447;-74
2022/03/12 12:28:19;;;;;;;1.90;0.28;;;16.00;74.60;;;;;;5052979;28;20121;-75
2022/03/12 12:30:47;;;;;;;3.30;0.75;;;16.20;76.50;;;;;;5052975;28;20112;-75
2022/03/12 12:33:17;;;;;;;2.50;0.10;;;16.30;72.70;;;;;;5054301;28;20159;-76
2022/03/12 12:35:44;;;;;;;4.95;0.10;;;16.40;74.50;;;;;;5054135;28;20070;-74
2022/03/12 12:38:12;;;;;;;1.33;0.47;;;16.30;72.30;;;;;;5053769;28;20033;-75
2022/03/12 12:40:38;;;;;;;3.47;0.13;;;16.40;73.80;;;;;;5053396;28;20021;-74
2022/03/12 12:43:12;;;;;;;5.90;0.30;;;16.60;71.40;;;;;;5054192;28;20394;-74
2022/03/12 12:45:52;;;;;;;2.97;0.22;;;16.60;68.40;;;;;;5052691;28;20031;-75
2022/03/12 12:48:31;;;;;;;0.70;0.00;;;16.60;68.60;;;;;;5053800;28;20032;-74
2022/03/12 12:51:17;;;;;;;2.22;0.20;;;16.60;69.00;;;;;;5053841;28;20032;-75